Time;durP1;ratioP1;P1;durP2;ratioP2;P2;SDS_P1;SDS_P2;PMS_P1;PMS_P2;Temp;Humidity;BMP_temperature;BMP_pressure;BME280_temperature;BME280_humidity;BME280_pressure;Samples;Min_cycle;Max_cycle;Signal;HPM_P1;HPM_P2
2023/01/30 00:02:20;;;;;;;13.00;11.53;;;2.80;40.90;;;;;;10295084;28;20708;-71
2023/01/30 00:07:25;;;;;;;12.57;11.23;;;2.80;41.00;;;;;;10309122;28;20235;-70
2023/01/30 00:12:28;;;;;;;12.53;10.93;;;2.70;41.10;;;;;;10306009;28;20223;-74
2023/01/30 00:17:31;;;;;;;12.80;11.50;;;2.70;41.30;;;;;;10307879;28;20257;-74
2023/01/30 00:22:36;;;;;;;12.23;10.97;;;2.60;41.30;;;;;;10310119;28;20231;-74
2023/01/30 00:27:39;;;;;;;12.90;11.60;;;2.60;41.30;;;;;;10304446;28;20581;-70
2023/01/30 00:32:42;;;;;;;13.60;10.93;;;2.70;41.50;;;;;;10302721;28;20255;-71
2023/01/30 00:37:46;;;;;;;12.20;10.93;;;2.60;41.40;;;;;;10306203;28;20239;-71
2023/01/30 00:48:10;;;;;;;12.10;10.80;;;2.60;41.40;;;;;;10304625;28;20327;-72
2023/01/30 00:53:16;;;;;;;11.63;10.43;;;2.60;41.30;;;;;;10302311;28;20238;-71
2023/01/30 00:58:19;;;;;;;12.70;11.00;;;2.60;41.40;;;;;;10288649;28;20250;-71
2023/01/30 01:03:23;;;;;;;12.77;11.37;;;2.50;41.40;;;;;;10301721;28;20231;-72
2023/01/30 01:08:30;;;;;;;11.97;10.77;;;2.40;41.50;;;;;;10301762;28;20223;-71
2023/01/30 01:13:35;;;;;;;12.50;11.20;;;2.40;41.60;;;;;;10303595;28;20231;-72
2023/01/30 01:18:38;;;;;;;11.57;10.37;;;2.30;41.70;;;;;;10307545;28;20236;-71
2023/01/30 01:23:42;;;;;;;13.20;10.63;;;2.40;41.80;;;;;;10301274;28;20734;-71
2023/01/30 01:28:46;;;;;;;13.00;11.20;;;2.40;41.70;;;;;;10305781;28;20235;-72
2023/01/30 01:33:49;;;;;;;12.50;11.20;;;2.40;41.70;;;;;;10302265;28;20226;-71
2023/01/30 01:38:56;;;;;;;13.13;11.20;;;2.40;41.70;;;;;;10299102;28;20246;-71
2023/01/30 01:44:02;;;;;;;11.77;10.60;;;2.40;41.80;;;;;;10303042;28;20241;-72
2023/01/30 01:49:11;;;;;;;12.20;10.90;;;2.30;41.60;;;;;;10304211;28;20247;-72
2023/01/30 01:54:19;;;;;;;11.87;10.63;;;2.40;41.80;;;;;;10299963;28;20912;-72
2023/01/30 01:59:30;;;;;;;12.03;10.77;;;2.30;41.70;;;;;;10298738;28;20234;-74
2023/01/30 02:09:56;;;;;;;11.93;10.73;;;2.50;41.80;;;;;;10303890;28;20239;-70
2023/01/30 02:15:04;;;;;;;11.63;9.60;;;2.40;41.60;;;;;;10299138;28;20231;-72
2023/01/30 02:20:16;;;;;;;11.53;10.33;;;2.40;41.80;;;;;;10302832;28;20239;-70
2023/01/30 02:25:35;;;;;;;12.90;10.70;;;2.40;41.80;;;;;;10301271;28;20289;-70
2023/01/30 02:31:17;;;;;;;12.00;10.77;;;2.50;41.80;;;;;;10309870;28;20261;-71
2023/01/30 02:36:29;;;;;;;12.87;11.30;;;2.60;41.80;;;;;;10295316;28;20223;-70
2023/01/30 02:41:44;;;;;;;12.57;11.13;;;2.50;41.60;;;;;;10302613;28;20226;-70
2023/01/30 02:46:54;;;;;;;12.17;10.83;;;2.50;41.50;;;;;;10297665;28;20231;-74
2023/01/30 02:52:00;;;;;;;11.67;10.47;;;2.50;41.50;;;;;;10304717;28;20613;-74
2023/01/30 02:57:03;;;;;;;11.90;10.70;;;2.60;41.60;;;;;;10302871;28;20242;-74
2023/01/30 03:02:29;;;;;;;11.57;10.37;;;2.60;41.40;;;;;;10296302;28;20566;-74
2023/01/30 03:07:44;;;;;;;11.97;10.27;;;2.60;41.30;;;;;;10306339;28;20223;-74
2023/01/30 03:12:54;;;;;;;12.23;10.33;;;2.60;41.30;;;;;;10306330;28;20235;-74
2023/01/30 03:18:00;;;;;;;11.43;10.10;;;2.60;41.30;;;;;;10304022;28;20235;-70
2023/01/30 03:23:03;;;;;;;11.87;10.17;;;2.60;41.30;;;;;;10295874;28;20251;-70
2023/01/30 03:28:08;;;;;;;11.40;10.13;;;2.60;41.40;;;;;;10292887;28;20238;-72
2023/01/30 03:33:15;;;;;;;12.43;11.10;;;2.70;41.40;;;;;;10300560;28;20238;-73
2023/01/30 03:38:18;;;;;;;12.63;10.27;;;2.80;41.30;;;;;;10301719;28;20235;-72
2023/01/30 03:43:25;;;;;;;12.83;11.13;;;2.80;41.30;;;;;;10299621;28;20369;-74
2023/01/30 03:48:29;;;;;;;12.47;11.13;;;2.60;41.30;;;;;;10306694;28;20246;-74
2023/01/30 03:53:33;;;;;;;12.03;10.63;;;2.60;41.50;;;;;;10303006;28;20239;-75
2023/01/30 03:58:36;;;;;;;12.23;10.53;;;2.50;41.40;;;;;;10312118;28;20265;-74
2023/01/30 04:03:40;;;;;;;12.37;10.83;;;2.50;41.50;;;;;;10306683;28;20632;-71
2023/01/30 04:08:43;;;;;;;13.10;10.83;;;2.50;41.60;;;;;;10308669;28;20715;-71
2023/01/30 04:13:47;;;;;;;12.07;10.70;;;2.50;41.60;;;;;;10305332;28;20240;-71
2023/01/30 04:18:52;;;;;;;13.60;11.33;;;2.50;42.30;;;;;;10311522;28;20696;-71
2023/01/30 04:23:55;;;;;;;13.37;11.97;;;2.60;41.70;;;;;;10307497;28;20615;-71
2023/01/30 04:28:59;;;;;;;15.67;12.77;;;2.40;41.60;;;;;;10299484;28;21193;-71
2023/01/30 04:34:03;;;;;;;15.67;12.57;;;2.30;41.70;;;;;;10307869;28;20305;-72
2023/01/30 04:39:07;;;;;;;13.60;11.17;;;2.30;41.80;;;;;;10305688;28;20243;-72
2023/01/30 04:44:10;;;;;;;14.57;12.00;;;2.20;41.90;;;;;;10303220;28;20231;-71
2023/01/30 04:49:15;;;;;;;14.77;11.90;;;2.40;42.10;;;;;;10302050;28;20234;-71
2023/01/30 04:54:18;;;;;;;14.43;12.20;;;2.20;42.00;;;;;;10308478;28;20223;-71
2023/01/30 04:59:34;;;;;;;14.70;12.50;;;2.20;42.10;;;;;;10307218;28;20235;-74
2023/01/30 05:04:39;;;;;;;14.97;13.37;;;2.20;42.10;;;;;;10305819;28;20643;-74
2023/01/30 05:09:42;;;;;;;13.80;12.00;;;2.20;42.10;;;;;;10304300;28;20249;-74
2023/01/30 05:14:45;;;;;;;15.17;12.37;;;2.30;42.10;;;;;;10307670;28;20249;-72
2023/01/30 05:19:50;;;;;;;14.27;11.67;;;2.30;42.00;;;;;;10306461;28;20219;-72
2023/01/30 05:24:53;;;;;;;14.13;12.07;;;2.40;42.00;;;;;;10303977;28;20707;-72
2023/01/30 05:29:56;;;;;;;14.13;12.37;;;2.40;42.00;;;;;;10298932;28;20239;-75
2023/01/30 05:35:01;;;;;;;15.20;12.10;;;2.40;41.90;;;;;;10297438;28;20236;-75
2023/01/30 05:40:06;;;;;;;15.47;12.27;;;2.60;42.00;;;;;;10298515;28;20243;-71
2023/01/30 05:45:10;;;;;;;13.53;11.83;;;2.50;41.90;;;;;;10303759;28;20243;-71
2023/01/30 05:50:15;;;;;;;14.40;11.43;;;2.50;42.00;;;;;;10298348;28;20267;-74
2023/01/30 05:55:23;;;;;;;15.17;12.20;;;2.50;41.90;;;;;;10301324;28;20314;-74
2023/01/30 06:00:26;;;;;;;13.87;12.30;;;2.50;41.80;;;;;;10305508;28;20239;-74
2023/01/30 06:05:31;;;;;;;15.07;12.33;;;2.50;42.00;;;;;;10298756;28;20232;-74
2023/01/30 06:10:34;;;;;;;14.53;12.20;;;2.60;41.90;;;;;;10298735;28;20317;-74
2023/01/30 06:15:38;;;;;;;14.80;12.77;;;2.60;41.90;;;;;;10302238;28;20242;-73
2023/01/30 06:20:47;;;;;;;16.50;12.70;;;2.70;42.00;;;;;;10294492;28;20289;-74
2023/01/30 06:25:51;;;;;;;15.30;12.97;;;2.80;41.80;;;;;;10298870;28;20231;-74
2023/01/30 06:30:55;;;;;;;14.97;12.53;;;2.80;41.90;;;;;;10298665;28;20227;-74
2023/01/30 06:35:59;;;;;;;16.80;13.23;;;2.90;41.90;;;;;;10295238;28;20246;-74
2023/01/30 06:41:02;;;;;;;15.20;12.90;;;3.00;41.80;;;;;;10298165;28;20225;-74
2023/01/30 06:46:06;;;;;;;17.17;13.53;;;2.90;41.60;;;;;;10298106;28;20226;-70
2023/01/30 06:51:10;;;;;;;14.23;11.93;;;3.10;41.80;;;;;;10299717;28;20683;-69
2023/01/30 06:56:13;;;;;;;17.73;13.83;;;3.00;41.50;;;;;;10300567;28;20236;-73
2023/01/30 07:01:17;;;;;;;16.50;13.77;;;3.10;42.10;;;;;;10301847;28;20228;-73
2023/01/30 07:06:22;;;;;;;14.20;12.37;;;3.10;41.50;;;;;;10299424;28;20254;-73
2023/01/30 07:11:25;;;;;;;16.87;13.77;;;3.10;41.40;;;;;;10299810;28;20235;-71
2023/01/30 07:16:29;;;;;;;15.60;13.13;;;3.10;41.50;;;;;;10297241;28;20231;-71
2023/01/30 07:21:34;;;;;;;17.50;14.53;;;3.20;41.70;;;;;;10302365;28;20227;-71
2023/01/30 07:26:37;;;;;;;16.70;13.93;;;3.20;41.40;;;;;;10297372;28;20834;-71
2023/01/30 07:31:40;;;;;;;15.87;13.27;;;3.30;41.60;;;;;;10300285;28;20314;-71
2023/01/30 07:36:45;;;;;;;16.40;14.47;;;3.20;41.50;;;;;;10299575;28;20239;-75
2023/01/30 07:41:48;;;;;;;16.40;14.20;;;3.30;41.60;;;;;;10301273;28;20606;-74
2023/01/30 07:46:51;;;;;;;17.00;14.13;;;3.30;41.40;;;;;;10293686;28;20226;-74
2023/01/30 07:51:56;;;;;;;17.23;14.47;;;3.40;41.40;;;;;;10298839;28;20231;-74
2023/01/30 07:56:59;;;;;;;13.77;12.23;;;3.40;41.50;;;;;;10300135;28;20234;-75
2023/01/30 08:02:02;;;;;;;15.23;12.47;;;3.40;41.40;;;;;;10304905;28;20224;-73
2023/01/30 08:07:06;;;;;;;15.17;12.27;;;3.60;41.60;;;;;;10304379;28;20602;-74
2023/01/30 08:12:09;;;;;;;13.90;12.07;;;3.50;41.50;;;;;;10305742;28;20674;-74
2023/01/30 08:17:12;;;;;;;14.57;12.23;;;3.70;41.70;;;;;;10304865;28;20238;-74
2023/01/30 08:22:17;;;;;;;14.80;12.87;;;3.70;41.60;;;;;;10303003;28;20851;-75
2023/01/30 08:27:20;;;;;;;14.10;12.60;;;3.80;41.40;;;;;;10303517;28;20234;-70
2023/01/30 08:32:23;;;;;;;13.77;12.33;;;3.80;41.70;;;;;;10294587;28;20231;-70
2023/01/30 08:37:28;;;;;;;13.13;11.20;;;3.80;41.70;;;;;;10290616;28;20230;-70
2023/01/30 08:42:31;;;;;;;13.47;12.07;;;3.90;41.50;;;;;;10296173;28;20231;-71
2023/01/30 08:47:34;;;;;;;14.23;11.97;;;4.00;41.60;;;;;;10294156;28;20234;-72
2023/01/30 08:52:39;;;;;;;12.37;10.67;;;4.10;41.50;;;;;;10293890;28;20234;-72
2023/01/30 08:57:42;;;;;;;12.60;11.30;;;4.10;41.40;;;;;;10291482;28;20231;-72
2023/01/30 09:02:45;;;;;;;11.43;10.27;;;4.10;41.30;;;;;;10294117;28;20367;-71
2023/01/30 09:07:50;;;;;;;11.23;10.00;;;4.20;41.50;;;;;;10296551;28;20230;-71
2023/01/30 09:12:53;;;;;;;11.80;10.57;;;4.30;41.60;;;;;;10294346;28;20231;-71
2023/01/30 09:17:57;;;;;;;12.23;9.80;;;4.50;41.70;;;;;;10290742;28;20243;-71
2023/01/30 09:23:01;;;;;;;10.97;9.77;;;4.50;41.80;;;;;;10290558;28;20731;-71
2023/01/30 09:28:05;;;;;;;9.80;8.80;;;4.50;41.70;;;;;;10294577;28;20235;-71
2023/01/30 09:33:08;;;;;;;10.40;9.30;;;4.60;41.70;;;;;;10293286;28;20228;-71
2023/01/30 09:38:12;;;;;;;9.70;8.67;;;4.70;41.70;;;;;;10299679;28;20599;-72
2023/01/30 09:43:29;;;;;;;8.47;7.53;;;4.80;41.60;;;;;;10293699;28;20231;-71
2023/01/30 09:48:39;;;;;;;9.37;7.80;;;4.90;41.40;;;;;;10294637;28;20226;-71
2023/01/30 09:53:58;;;;;;;8.80;7.87;;;5.00;41.40;;;;;;10299883;28;20246;-74
2023/01/30 09:59:04;;;;;;;9.13;8.03;;;5.20;41.50;;;;;;10298617;28;20222;-74
2023/01/30 10:04:15;;;;;;;8.70;7.80;;;5.30;41.40;;;;;;10302789;28;20229;-70
2023/01/30 10:09:31;;;;;;;11.20;8.50;;;5.50;41.20;;;;;;10295092;28;20227;-71
2023/01/30 10:14:50;;;;;;;9.23;8.23;;;5.70;40.60;;;;;;10287570;28;20238;-71
2023/01/30 10:20:22;;;;;;;9.60;8.20;;;5.90;41.00;;;;;;10289751;28;20649;-71
2023/01/30 10:25:32;;;;;;;9.33;7.77;;;6.10;41.50;;;;;;10285733;28;20238;-68
2023/01/30 10:30:36;;;;;;;8.20;7.40;;;6.30;40.30;;;;;;10291303;28;20778;-68
2023/01/30 10:35:42;;;;;;;8.70;7.80;;;6.40;40.60;;;;;;10293231;28;20711;-68
2023/01/30 10:40:52;;;;;;;8.73;7.30;;;6.50;40.40;;;;;;10297541;28;20231;-68
2023/01/30 10:46:05;;;;;;;8.30;7.40;;;6.40;40.00;;;;;;10294907;28;20238;-70
2023/01/30 10:51:23;;;;;;;8.33;7.53;;;6.50;39.90;;;;;;10302647;28;20231;-76
2023/01/30 10:56:35;;;;;;;10.10;8.47;;;6.40;39.60;;;;;;10295454;28;21012;-71
2023/01/30 11:01:43;;;;;;;7.77;6.87;;;6.40;39.70;;;;;;10296476;28;20223;-71
2023/01/30 11:06:47;;;;;;;7.40;6.70;;;6.30;40.10;;;;;;10293614;28;20762;-71
2023/01/30 11:11:54;;;;;;;7.47;6.77;;;6.30;40.50;;;;;;10281291;28;20247;-71
2023/01/30 11:16:58;;;;;;;7.83;7.03;;;6.30;40.40;;;;;;10269866;28;20238;-71
2023/01/30 11:22:04;;;;;;;6.93;6.23;;;6.30;40.50;;;;;;10274733;28;20227;-71
2023/01/30 11:27:12;;;;;;;7.00;6.37;;;6.40;40.80;;;;;;10271218;28;20234;-71
2023/01/30 11:32:27;;;;;;;7.30;6.60;;;6.50;40.70;;;;;;10272496;28;20606;-71
2023/01/30 11:37:33;;;;;;;6.83;5.33;;;6.50;40.60;;;;;;10276236;28;20230;-71
2023/01/30 11:42:45;;;;;;;5.47;4.97;;;6.70;40.70;;;;;;10278414;28;20233;-71
2023/01/30 11:47:51;;;;;;;5.83;5.33;;;6.80;40.20;;;;;;10270405;28;20222;-71
2023/01/30 11:53:21;;;;;;;6.40;5.80;;;6.80;40.30;;;;;;10274556;28;20231;-71
2023/01/30 11:58:31;;;;;;;5.53;5.03;;;6.90;40.30;;;;;;10276481;28;20640;-71
2023/01/30 12:03:47;;;;;;;5.80;5.20;;;6.90;40.40;;;;;;10277456;28;20253;-71
2023/01/30 12:08:54;;;;;;;5.03;4.53;;;6.90;40.20;;;;;;10274952;28;20892;-69
2023/01/30 12:14:14;;;;;;;5.93;5.40;;;7.00;40.50;;;;;;10280057;28;20326;-69
2023/01/30 12:19:33;;;;;;;4.60;4.20;;;7.00;40.40;;;;;;10281664;28;20759;-71
2023/01/30 12:24:42;;;;;;;5.13;4.63;;;7.00;40.30;;;;;;10274943;28;20235;-70
2023/01/30 12:29:59;;;;;;;5.40;4.90;;;7.00;40.30;;;;;;10279571;28;20246;-71
2023/01/30 12:35:02;;;;;;;5.90;5.30;;;7.10;39.90;;;;;;10276591;28;20231;-71
2023/01/30 12:40:19;;;;;;;5.67;5.07;;;7.10;40.50;;;;;;10284494;28;20247;-76
2023/01/30 12:45:26;;;;;;;6.33;5.73;;;7.10;40.20;;;;;;10310841;28;20277;-70
2023/01/30 12:50:41;;;;;;;7.77;7.03;;;7.10;40.40;;;;;;10294070;28;20853;-76
2023/01/30 12:55:57;;;;;;;8.20;6.97;;;7.10;40.20;;;;;;10307176;28;20235;-77
2023/01/30 13:01:16;;;;;;;6.70;6.10;;;7.10;40.20;;;;;;10299511;28;20218;-77
2023/01/30 13:06:45;;;;;;;6.60;5.93;;;7.10;40.00;;;;;;10298694;28;20231;-77
2023/01/30 13:12:00;;;;;;;6.43;5.83;;;7.10;40.00;;;;;;10310427;28;20227;-77
2023/01/30 13:17:18;;;;;;;6.77;5.90;;;7.10;40.10;;;;;;10303284;28;20234;-71
2023/01/30 13:22:26;;;;;;;7.33;6.63;;;7.10;40.20;;;;;;10297862;28;20245;-71
2023/01/30 13:27:34;;;;;;;7.97;5.93;;;7.00;40.40;;;;;;10303119;28;20236;-71
2023/01/30 13:32:43;;;;;;;7.50;6.60;;;7.00;40.60;;;;;;10299186;28;20749;-71
2023/01/30 13:37:48;;;;;;;7.97;6.73;;;6.90;40.60;;;;;;10298127;28;20612;-72
2023/01/30 13:42:55;;;;;;;6.90;6.20;;;6.90;40.90;;;;;;10299445;28;20227;-71
2023/01/30 13:48:15;;;;;;;7.23;6.50;;;6.90;41.10;;;;;;10295025;28;20243;-70
2023/01/30 13:53:25;;;;;;;7.13;6.43;;;6.80;41.30;;;;;;10301824;28;20235;-70
2023/01/30 13:58:43;;;;;;;7.93;6.47;;;6.80;41.50;;;;;;10297429;28;20573;-71
2023/01/30 14:03:48;;;;;;;7.33;6.60;;;6.70;41.80;;;;;;10299615;28;20581;-70
2023/01/30 14:08:57;;;;;;;7.57;6.40;;;6.70;41.70;;;;;;10296587;28;20234;-71
2023/01/30 14:14:04;;;;;;;7.50;6.80;;;6.60;41.70;;;;;;10295112;28;20310;-71
2023/01/30 14:19:38;;;;;;;8.30;7.50;;;6.50;41.90;;;;;;10297130;28;20223;-71
2023/01/30 14:24:41;;;;;;;7.60;6.90;;;6.40;42.50;;;;;;10273587;28;20683;-71
2023/01/30 14:29:54;;;;;;;6.57;5.97;;;6.30;42.40;;;;;;10297853;28;20238;-71
2023/01/30 14:35:21;;;;;;;7.20;6.50;;;6.20;42.70;;;;;;10293807;28;20231;-70
2023/01/30 14:40:33;;;;;;;7.97;7.17;;;6.10;43.10;;;;;;10285202;28;20232;-72
2023/01/30 14:45:48;;;;;;;6.93;6.33;;;6.00;43.00;;;;;;10295105;28;20622;-71
2023/01/30 14:51:11;;;;;;;8.47;7.40;;;5.90;43.10;;;;;;10299318;28;20220;-71
2023/01/30 14:56:15;;;;;;;7.50;6.77;;;5.80;43.40;;;;;;10300595;28;20228;-77
2023/01/30 15:01:18;;;;;;;7.50;6.80;;;5.80;42.80;;;;;;10295088;28;20313;-73
2023/01/30 15:06:26;;;;;;;8.00;7.23;;;5.70;42.80;;;;;;10296154;28;20246;-70
2023/01/30 15:11:31;;;;;;;9.43;8.43;;;5.70;43.30;;;;;;10297304;28;20251;-71
2023/01/30 15:17:05;;;;;;;8.30;7.33;;;5.70;43.30;;;;;;10295162;28;20234;-71
2023/01/30 15:22:20;;;;;;;10.40;9.27;;;5.60;43.30;;;;;;10292517;28;20227;-71
2023/01/30 15:27:30;;;;;;;9.53;8.53;;;5.60;43.90;;;;;;10294631;28;20610;-71
2023/01/30 15:32:34;;;;;;;9.70;8.70;;;5.50;43.80;;;;;;10296877;28;20234;-71
2023/01/30 15:37:40;;;;;;;10.03;9.03;;;5.50;43.20;;;;;;10299103;28;20241;-69
2023/01/30 15:42:44;;;;;;;9.33;8.13;;;5.40;44.00;;;;;;10302769;28;20222;-70
2023/01/30 15:48:03;;;;;;;9.23;8.07;;;5.30;43.90;;;;;;10317080;28;20235;-77
2023/01/30 15:53:14;;;;;;;9.73;8.73;;;5.30;44.50;;;;;;10312422;28;20694;-78
2023/01/30 15:58:20;;;;;;;9.63;8.63;;;5.30;44.50;;;;;;10306468;28;20234;-77
2023/01/30 16:03:27;;;;;;;9.63;8.63;;;5.30;44.30;;;;;;10303780;28;20228;-71
2023/01/30 16:08:33;;;;;;;9.43;8.47;;;5.40;44.20;;;;;;10299076;28;20238;-72
2023/01/30 16:13:38;;;;;;;10.17;9.17;;;5.40;44.40;;;;;;10296696;28;20238;-71
2023/01/30 16:18:47;;;;;;;9.77;8.70;;;5.40;44.00;;;;;;10304534;28;20255;-72
2023/01/30 16:24:03;;;;;;;9.13;8.23;;;5.40;44.30;;;;;;10308485;28;20250;-69
2023/01/30 16:29:13;;;;;;;9.30;8.40;;;5.50;44.60;;;;;;10290958;28;20318;-71
2023/01/30 16:34:29;;;;;;;7.87;7.07;;;5.50;44.40;;;;;;10297909;28;20226;-72
2023/01/30 16:39:35;;;;;;;8.60;7.80;;;5.50;44.80;;;;;;10300336;28;20253;-71
2023/01/30 16:44:38;;;;;;;7.83;7.03;;;5.50;44.40;;;;;;10294008;28;20266;-72
2023/01/30 16:49:46;;;;;;;8.77;7.47;;;5.50;44.20;;;;;;10299934;28;20994;-72
2023/01/30 16:54:53;;;;;;;8.17;7.37;;;5.60;44.70;;;;;;10299681;28;20349;-71
2023/01/30 16:59:56;;;;;;;7.57;6.77;;;5.60;44.60;;;;;;10306028;28;20258;-72
2023/01/30 17:05:17;;;;;;;7.43;6.63;;;5.60;44.30;;;;;;10305639;28;20231;-72
2023/01/30 17:10:52;;;;;;;6.77;6.07;;;5.70;45.10;;;;;;10298367;28;20692;-72
2023/01/30 17:16:15;;;;;;;7.13;6.43;;;5.70;44.80;;;;;;10307038;28;20241;-77
2023/01/30 17:21:19;;;;;;;6.57;5.97;;;5.80;44.30;;;;;;10306221;28;20681;-77
2023/01/30 17:26:24;;;;;;;6.97;6.27;;;5.80;44.40;;;;;;10306310;28;20287;-77
2023/01/30 17:31:27;;;;;;;7.63;6.80;;;5.80;44.40;;;;;;10305996;28;20227;-77
2023/01/30 17:36:31;;;;;;;6.43;5.83;;;5.90;44.20;;;;;;10306094;28;20735;-77
2023/01/30 17:41:36;;;;;;;6.53;5.50;;;6.00;44.20;;;;;;10308022;28;20251;-77
2023/01/30 17:46:44;;;;;;;6.40;5.80;;;5.90;44.30;;;;;;10310762;28;20230;-77
2023/01/30 17:51:48;;;;;;;7.17;6.23;;;5.90;44.20;;;;;;10312370;28;20223;-76
2023/01/30 17:56:55;;;;;;;7.30;6.60;;;5.90;44.10;;;;;;10303650;28;20231;-77
2023/01/30 18:01:58;;;;;;;8.50;6.90;;;5.90;44.40;;;;;;10306747;28;20767;-77
2023/01/30 18:07:05;;;;;;;8.50;7.57;;;6.00;44.10;;;;;;10309120;28;20699;-74
2023/01/30 18:12:09;;;;;;;7.80;7.00;;;6.00;44.10;;;;;;10311000;28;20220;-76
2023/01/30 18:17:13;;;;;;;8.57;7.67;;;6.00;44.10;;;;;;10304000;28;20231;-71
2023/01/30 18:22:16;;;;;;;7.93;7.17;;;6.00;44.00;;;;;;10297079;28;20235;-71
2023/01/30 18:27:20;;;;;;;7.87;7.07;;;6.00;44.10;;;;;;10296331;28;20869;-70
2023/01/30 18:32:23;;;;;;;7.33;6.63;;;6.00;44.10;;;;;;10295946;28;20249;-71
2023/01/30 18:37:26;;;;;;;7.50;6.77;;;6.00;43.90;;;;;;10300054;28;20257;-71
2023/01/30 18:42:31;;;;;;;7.07;6.37;;;6.00;43.90;;;;;;10300153;28;20254;-71
2023/01/30 18:47:34;;;;;;;6.73;6.07;;;6.00;44.80;;;;;;10293731;28;20617;-71
2023/01/30 18:52:37;;;;;;;5.73;5.13;;;6.00;43.90;;;;;;10300189;28;20227;-71
2023/01/30 18:57:42;;;;;;;6.60;5.40;;;6.10;43.90;;;;;;10299617;28;20238;-71
2023/01/30 19:02:45;;;;;;;6.97;5.13;;;6.10;44.10;;;;;;10284392;28;20238;-70
2023/01/30 19:07:48;;;;;;;7.63;5.83;;;6.10;44.00;;;;;;10287823;28;20258;-70
2023/01/30 19:18:13;;;;;;;5.40;4.80;;;6.20;44.00;;;;;;10299125;28;20227;-72
2023/01/30 19:23:16;;;;;;;5.13;4.57;;;6.20;43.90;;;;;;10307115;28;20238;-75
2023/01/30 19:28:21;;;;;;;5.67;5.17;;;6.20;43.90;;;;;;10302595;28;20230;-70
2023/01/30 19:33:27;;;;;;;5.97;5.27;;;6.20;44.00;;;;;;10299994;28;20237;-75
2023/01/30 19:38:30;;;;;;;5.63;5.00;;;6.20;43.70;;;;;;10307139;28;20234;-70
2023/01/30 19:43:36;;;;;;;5.70;5.20;;;6.20;43.80;;;;;;10303927;28;20226;-70
2023/01/30 19:48:40;;;;;;;6.33;5.13;;;6.20;43.70;;;;;;10284603;28;20238;-73
2023/01/30 19:53:45;;;;;;;5.57;4.57;;;6.20;43.70;;;;;;10285463;28;20238;-72
2023/01/30 19:58:50;;;;;;;5.93;5.07;;;6.20;43.70;;;;;;10292217;28;20230;-72
2023/01/30 20:03:54;;;;;;;5.03;4.53;;;6.20;43.80;;;;;;10283248;28;20231;-72
2023/01/30 20:08:59;;;;;;;4.93;4.47;;;6.20;43.70;;;;;;10281693;28;20230;-75
2023/01/30 20:14:05;;;;;;;5.23;4.60;;;6.20;43.70;;;;;;10284591;28;20314;-72
2023/01/30 20:19:13;;;;;;;8.43;7.47;;;6.20;43.70;;;;;;10283707;28;20326;-71
2023/01/30 20:24:16;;;;;;;7.00;5.90;;;6.30;43.80;;;;;;10285750;28;20227;-71
2023/01/30 20:29:21;;;;;;;5.67;4.77;;;6.30;43.80;;;;;;10280434;28;20234;-71
2023/01/30 20:34:24;;;;;;;5.97;5.20;;;6.30;43.80;;;;;;10274805;28;20691;-71
2023/01/30 20:39:27;;;;;;;4.70;4.27;;;6.30;43.80;;;;;;10275235;28;20234;-74
2023/01/30 20:44:34;;;;;;;5.60;4.27;;;6.30;43.80;;;;;;10277358;28;20782;-71
2023/01/30 20:49:37;;;;;;;5.10;4.30;;;6.40;43.90;;;;;;10274059;28;20234;-72
2023/01/30 20:54:40;;;;;;;4.50;4.00;;;6.40;43.70;;;;;;10270830;28;20231;-77
2023/01/30 20:59:45;;;;;;;4.80;3.80;;;6.40;43.50;;;;;;10273019;28;20232;-72
2023/01/30 21:04:48;;;;;;;5.50;4.33;;;6.50;43.50;;;;;;10285168;28;20270;-72
2023/01/30 21:09:52;;;;;;;5.77;3.97;;;6.50;43.50;;;;;;10283661;28;20238;-72
2023/01/30 21:14:56;;;;;;;4.33;3.93;;;6.50;43.40;;;;;;10285070;28;20227;-72
2023/01/30 21:20:00;;;;;;;6.37;4.20;;;6.50;43.40;;;;;;10284407;28;20219;-70
2023/01/30 21:25:04;;;;;;;5.63;4.23;;;6.50;43.40;;;;;;10284962;28;20310;-72
2023/01/30 21:30:10;;;;;;;4.43;3.90;;;6.50;43.40;;;;;;10292511;28;20227;-72
2023/01/30 21:35:13;;;;;;;4.63;3.80;;;6.50;43.40;;;;;;10293030;28;20591;-77
2023/01/30 21:45:40;;;;;;;6.13;4.10;;;6.50;43.50;;;;;;10294410;28;20327;-78
2023/01/30 21:50:43;;;;;;;4.47;3.90;;;6.50;43.40;;;;;;10293291;28;20321;-77
2023/01/30 21:55:50;;;;;;;6.00;3.80;;;6.50;43.50;;;;;;10301527;28;20235;-77
2023/01/30 22:00:55;;;;;;;4.53;4.00;;;6.60;43.40;;;;;;10300496;28;20233;-71
2023/01/30 22:05:58;;;;;;;4.47;3.80;;;6.60;43.50;;;;;;10300466;28;20735;-73
2023/01/30 22:11:07;;;;;;;3.90;3.47;;;6.60;43.40;;;;;;10294852;28;20841;-73
2023/01/30 22:16:13;;;;;;;4.67;3.80;;;6.60;43.20;;;;;;10297740;28;20763;-71
2023/01/30 22:21:19;;;;;;;6.50;4.60;;;6.60;43.20;;;;;;10295636;28;20659;-72
2023/01/30 22:26:24;;;;;;;4.23;3.83;;;6.60;43.20;;;;;;10296898;28;20244;-72
2023/01/30 22:31:33;;;;;;;5.43;4.00;;;6.60;43.40;;;;;;10294857;28;20227;-72
2023/01/30 22:36:37;;;;;;;4.87;4.20;;;6.60;43.40;;;;;;10296950;28;20708;-72
2023/01/30 22:41:40;;;;;;;5.53;4.30;;;6.60;43.40;;;;;;10292782;28;20282;-72
2023/01/30 22:46:44;;;;;;;5.53;4.00;;;6.60;43.40;;;;;;10295192;28;20231;-76
2023/01/30 22:51:48;;;;;;;4.57;3.67;;;6.50;43.20;;;;;;10290245;28;20227;-71
2023/01/30 22:56:51;;;;;;;4.43;4.03;;;6.50;43.20;;;;;;10297659;28;20694;-71
2023/01/30 23:01:56;;;;;;;4.40;3.60;;;6.50;43.20;;;;;;10296987;28;20227;-70
2023/01/30 23:06:59;;;;;;;4.17;3.77;;;6.60;43.30;;;;;;10299597;28;20713;-70
2023/01/30 23:22:45;;;;;;;4.37;3.90;;;6.60;43.20;;;;;;10292090;28;20227;-72
2023/01/30 23:27:48;;;;;;;4.90;4.20;;;6.60;43.20;;;;;;10298885;28;20231;-70
2023/01/30 23:32:52;;;;;;;4.50;3.93;;;6.60;43.20;;;;;;10298668;28;20276;-70
2023/01/30 23:43:27;;;;;;;4.60;3.97;;;6.60;43.20;;;;;;10228329;28;20223;-70
2023/01/30 23:48:32;;;;;;;4.90;3.90;;;6.60;43.10;;;;;;10294678;28;20242;-70
2023/01/30 23:53:36;;;;;;;4.77;3.60;;;6.70;43.20;;;;;;10297621;28;20223;-70
2023/01/30 23:58:39;;;;;;;4.43;4.03;;;6.70;43.10;;;;;;10295253;28;20238;-70
